sensor_id;sensor_type;location;lat;lon;timestamp;P1;durP1;ratioP1;P2;durP2;ratioP2
47958;SDS011;33718;50.910;-1.514;2022-12-07T00:01:27;4.90;;;4.40;;
47958;SDS011;33718;50.910;-1.514;2022-12-07T00:03:29;4.03;;;3.63;;
47958;SDS011;33718;50.910;-1.514;2022-12-07T00:05:31;4.85;;;4.32;;
47958;SDS011;33718;50.910;-1.514;2022-12-07T00:07:32;4.78;;;4.38;;
47958;SDS011;33718;50.910;-1.514;2022-12-07T00:09:34;4.05;;;3.65;;
47958;SDS011;33718;50.910;-1.514;2022-12-07T00:11:36;7.65;;;4.95;;
47958;SDS011;33718;50.910;-1.514;2022-12-07T00:13:38;4.50;;;3.88;;
47958;SDS011;33718;50.910;-1.514;2022-12-07T00:15:39;5.53;;;4.10;;
47958;SDS011;33718;50.910;-1.514;2022-12-07T00:17:41;6.20;;;3.60;;
47958;SDS011;33718;50.910;-1.514;2022-12-07T00:19:42;5.38;;;3.78;;
47958;SDS011;33718;50.910;-1.514;2022-12-07T00:21:44;4.15;;;3.50;;
47958;SDS011;33718;50.910;-1.514;2022-12-07T00:23:46;4.25;;;3.85;;
47958;SDS011;33718;50.910;-1.514;2022-12-07T00:25:48;5.10;;;4.60;;
47958;SDS011;33718;50.910;-1.514;2022-12-07T00:27:51;4.60;;;3.45;;
47958;SDS011;33718;50.910;-1.514;2022-12-07T00:29:53;3.83;;;3.53;;
47958;SDS011;33718;50.910;-1.514;2022-12-07T00:31:54;5.18;;;4.10;;
47958;SDS011;33718;50.910;-1.514;2022-12-07T00:33:57;5.53;;;4.43;;
47958;SDS011;33718;50.910;-1.514;2022-12-07T00:35:59;6.00;;;4.82;;
47958;SDS011;33718;50.910;-1.514;2022-12-07T00:38:01;6.28;;;5.65;;
47958;SDS011;33718;50.910;-1.514;2022-12-07T00:40:02;6.53;;;5.45;;
47958;SDS011;33718;50.910;-1.514;2022-12-07T00:42:04;8.07;;;5.80;;
47958;SDS011;33718;50.910;-1.514;2022-12-07T00:44:06;6.57;;;5.18;;
47958;SDS011;33718;50.910;-1.514;2022-12-07T00:46:07;4.35;;;3.55;;
47958;SDS011;33718;50.910;-1.514;2022-12-07T00:48:09;5.95;;;5.25;;
47958;SDS011;33718;50.910;-1.514;2022-12-07T00:50:11;5.72;;;4.88;;
47958;SDS011;33718;50.910;-1.514;2022-12-07T00:52:12;6.60;;;5.78;;
47958;SDS011;33718;50.910;-1.514;2022-12-07T00:54:14;6.90;;;5.53;;
47958;SDS011;33718;50.910;-1.514;2022-12-07T00:56:17;7.75;;;6.70;;
47958;SDS011;33718;50.910;-1.514;2022-12-07T00:58:19;7.05;;;6.35;;
47958;SDS011;33718;50.910;-1.514;2022-12-07T01:00:21;8.07;;;6.20;;
47958;SDS011;33718;50.910;-1.514;2022-12-07T01:02:23;9.48;;;6.78;;
47958;SDS011;33718;50.910;-1.514;2022-12-07T01:04:25;7.72;;;6.38;;
47958;SDS011;33718;50.910;-1.514;2022-12-07T01:06:32;7.95;;;6.70;;
47958;SDS011;33718;50.910;-1.514;2022-12-07T01:08:36;8.70;;;6.60;;
47958;SDS011;33718;50.910;-1.514;2022-12-07T01:10:40;8.65;;;7.07;;
47958;SDS011;33718;50.910;-1.514;2022-12-07T01:12:44;8.48;;;6.38;;
47958;SDS011;33718;50.910;-1.514;2022-12-07T01:14:47;7.13;;;5.40;;
47958;SDS011;33718;50.910;-1.514;2022-12-07T01:16:50;6.47;;;5.25;;
47958;SDS011;33718;50.910;-1.514;2022-12-07T01:18:54;6.80;;;6.10;;
47958;SDS011;33718;50.910;-1.514;2022-12-07T01:21:40;6.15;;;5.55;;
47958;SDS011;33718;50.910;-1.514;2022-12-07T01:23:24;7.25;;;6.03;;
47958;SDS011;33718;50.910;-1.514;2022-12-07T01:25:27;7.68;;;5.55;;
47958;SDS011;33718;50.910;-1.514;2022-12-07T01:27:30;6.30;;;5.13;;
47958;SDS011;33718;50.910;-1.514;2022-12-07T01:29:34;7.55;;;6.43;;
47958;SDS011;33718;50.910;-1.514;2022-12-07T01:31:38;7.28;;;5.57;;
47958;SDS011;33718;50.910;-1.514;2022-12-07T01:33:42;10.55;;;7.93;;
47958;SDS011;33718;50.910;-1.514;2022-12-07T01:35:46;9.30;;;7.13;;
47958;SDS011;33718;50.910;-1.514;2022-12-07T01:37:49;7.57;;;5.55;;
47958;SDS011;33718;50.910;-1.514;2022-12-07T01:39:53;5.93;;;5.32;;
47958;SDS011;33718;50.910;-1.514;2022-12-07T01:41:54;7.35;;;6.38;;
47958;SDS011;33718;50.910;-1.514;2022-12-07T01:44:09;6.20;;;5.57;;
47958;SDS011;33718;50.910;-1.514;2022-12-07T01:46:11;8.57;;;5.75;;
47958;SDS011;33718;50.910;-1.514;2022-12-07T01:48:14;7.20;;;5.35;;
47958;SDS011;33718;50.910;-1.514;2022-12-07T01:50:17;7.03;;;5.57;;
47958;SDS011;33718;50.910;-1.514;2022-12-07T01:52:26;8.75;;;6.90;;
47958;SDS011;33718;50.910;-1.514;2022-12-07T01:54:29;8.68;;;6.88;;
47958;SDS011;33718;50.910;-1.514;2022-12-07T01:56:31;7.05;;;5.82;;
47958;SDS011;33718;50.910;-1.514;2022-12-07T01:58:33;6.35;;;5.20;;
47958;SDS011;33718;50.910;-1.514;2022-12-07T02:00:35;7.18;;;6.00;;
47958;SDS011;33718;50.910;-1.514;2022-12-07T02:02:38;7.30;;;6.05;;
47958;SDS011;33718;50.910;-1.514;2022-12-07T02:04:42;7.15;;;5.53;;
47958;SDS011;33718;50.910;-1.514;2022-12-07T02:06:44;5.60;;;4.45;;
47958;SDS011;33718;50.910;-1.514;2022-12-07T02:08:46;6.30;;;5.22;;
47958;SDS011;33718;50.910;-1.514;2022-12-07T02:10:48;7.68;;;6.22;;
47958;SDS011;33718;50.910;-1.514;2022-12-07T02:12:51;4.95;;;4.10;;
47958;SDS011;33718;50.910;-1.514;2022-12-07T02:14:53;6.07;;;3.83;;
47958;SDS011;33718;50.910;-1.514;2022-12-07T02:25:53;5.30;;;4.30;;
47958;SDS011;33718;50.910;-1.514;2022-12-07T02:30:21;5.80;;;3.95;;
47958;SDS011;33718;50.910;-1.514;2022-12-07T02:32:24;6.43;;;5.47;;
47958;SDS011;33718;50.910;-1.514;2022-12-07T02:34:32;5.90;;;5.30;;
47958;SDS011;33718;50.910;-1.514;2022-12-07T02:36:46;5.10;;;4.65;;
47958;SDS011;33718;50.910;-1.514;2022-12-07T02:38:51;4.20;;;3.75;;
47958;SDS011;33718;50.910;-1.514;2022-12-07T02:40:57;4.05;;;3.53;;
47958;SDS011;33718;50.910;-1.514;2022-12-07T02:43:24;4.10;;;3.70;;
47958;SDS011;33718;50.910;-1.514;2022-12-07T02:45:24;4.10;;;3.20;;
47958;SDS011;33718;50.910;-1.514;2022-12-07T02:47:26;3.38;;;3.08;;
47958;SDS011;33718;50.910;-1.514;2022-12-07T02:49:30;4.93;;;4.43;;
47958;SDS011;33718;50.910;-1.514;2022-12-07T02:51:32;3.17;;;2.97;;
47958;SDS011;33718;50.910;-1.514;2022-12-07T02:53:38;3.20;;;2.95;;
47958;SDS011;33718;50.910;-1.514;2022-12-07T02:55:40;3.55;;;3.25;;
47958;SDS011;33718;50.910;-1.514;2022-12-07T02:57:49;4.40;;;2.47;;
47958;SDS011;33718;50.910;-1.514;2022-12-07T03:00:08;11.40;;;6.93;;
47958;SDS011;33718;50.910;-1.514;2022-12-07T03:06:46;2.80;;;2.60;;
47958;SDS011;33718;50.910;-1.514;2022-12-07T03:08:52;2.72;;;2.53;;
47958;SDS011;33718;50.910;-1.514;2022-12-07T03:11:03;2.65;;;2.45;;
47958;SDS011;33718;50.910;-1.514;2022-12-07T03:13:16;2.15;;;2.03;;
47958;SDS011;33718;50.910;-1.514;2022-12-07T03:15:26;5.35;;;4.70;;
47958;SDS011;33718;50.910;-1.514;2022-12-07T03:17:29;3.15;;;2.85;;
47958;SDS011;33718;50.910;-1.514;2022-12-07T03:19:32;2.38;;;2.17;;
47958;SDS011;33718;50.910;-1.514;2022-12-07T03:21:37;2.15;;;2.03;;
47958;SDS011;33718;50.910;-1.514;2022-12-07T03:23:40;2.85;;;2.65;;
47958;SDS011;33718;50.910;-1.514;2022-12-07T03:25:47;3.10;;;2.85;;
47958;SDS011;33718;50.910;-1.514;2022-12-07T03:27:57;2.67;;;2.47;;
47958;SDS011;33718;50.910;-1.514;2022-12-07T03:30:06;3.55;;;3.15;;
47958;SDS011;33718;50.910;-1.514;2022-12-07T03:32:10;2.83;;;2.63;;
47958;SDS011;33718;50.910;-1.514;2022-12-07T03:34:16;5.80;;;4.03;;
47958;SDS011;33718;50.910;-1.514;2022-12-07T03:36:21;4.07;;;3.67;;
47958;SDS011;33718;50.910;-1.514;2022-12-07T03:38:33;5.30;;;4.78;;
47958;SDS011;33718;50.910;-1.514;2022-12-07T03:40:39;5.53;;;4.90;;
47958;SDS011;33718;50.910;-1.514;2022-12-07T03:42:42;5.75;;;5.15;;
47958;SDS011;33718;50.910;-1.514;2022-12-07T03:44:45;7.15;;;5.50;;
47958;SDS011;33718;50.910;-1.514;2022-12-07T03:47:22;7.07;;;5.68;;
47958;SDS011;33718;50.910;-1.514;2022-12-07T03:51:25;9.15;;;6.88;;
47958;SDS011;33718;50.910;-1.514;2022-12-07T03:53:30;6.95;;;6.03;;
47958;SDS011;33718;50.910;-1.514;2022-12-07T03:55:35;6.72;;;6.03;;
47958;SDS011;33718;50.910;-1.514;2022-12-07T03:57:39;7.45;;;6.00;;
47958;SDS011;33718;50.910;-1.514;2022-12-07T03:59:41;5.28;;;4.78;;
47958;SDS011;33718;50.910;-1.514;2022-12-07T04:01:51;5.78;;;5.20;;
47958;SDS011;33718;50.910;-1.514;2022-12-07T04:03:53;8.98;;;7.22;;
47958;SDS011;33718;50.910;-1.514;2022-12-07T04:05:55;10.10;;;7.63;;
47958;SDS011;33718;50.910;-1.514;2022-12-07T04:07:57;6.97;;;5.88;;
47958;SDS011;33718;50.910;-1.514;2022-12-07T04:10:00;7.85;;;7.05;;
47958;SDS011;33718;50.910;-1.514;2022-12-07T04:12:09;7.32;;;6.55;;
47958;SDS011;33718;50.910;-1.514;2022-12-07T04:14:12;6.20;;;5.60;;
47958;SDS011;33718;50.910;-1.514;2022-12-07T04:16:20;7.47;;;5.55;;
47958;SDS011;33718;50.910;-1.514;2022-12-07T04:18:25;7.20;;;6.55;;
47958;SDS011;33718;50.910;-1.514;2022-12-07T04:20:45;6.72;;;5.90;;
47958;SDS011;33718;50.910;-1.514;2022-12-07T04:22:55;9.07;;;6.78;;
47958;SDS011;33718;50.910;-1.514;2022-12-07T04:25:15;10.30;;;8.07;;
47958;SDS011;33718;50.910;-1.514;2022-12-07T04:27:22;7.03;;;6.20;;
47958;SDS011;33718;50.910;-1.514;2022-12-07T04:29:39;6.97;;;5.60;;
47958;SDS011;33718;50.910;-1.514;2022-12-07T04:31:47;10.13;;;7.60;;
47958;SDS011;33718;50.910;-1.514;2022-12-07T04:34:15;9.30;;;7.10;;
47958;SDS011;33718;50.910;-1.514;2022-12-07T04:36:29;8.13;;;6.15;;
47958;SDS011;33718;50.910;-1.514;2022-12-07T04:38:46;6.38;;;5.72;;
47958;SDS011;33718;50.910;-1.514;2022-12-07T04:41:03;7.80;;;6.35;;
47958;SDS011;33718;50.910;-1.514;2022-12-07T04:43:30;6.22;;;5.10;;
47958;SDS011;33718;50.910;-1.514;2022-12-07T04:45:55;6.13;;;5.47;;
47958;SDS011;33718;50.910;-1.514;2022-12-07T04:48:22;5.60;;;5.00;;
47958;SDS011;33718;50.910;-1.514;2022-12-07T04:50:32;5.28;;;4.70;;
47958;SDS011;33718;50.910;-1.514;2022-12-07T04:52:33;7.07;;;5.60;;
47958;SDS011;33718;50.910;-1.514;2022-12-07T04:54:35;7.28;;;5.88;;
47958;SDS011;33718;50.910;-1.514;2022-12-07T04:56:36;5.95;;;5.13;;
47958;SDS011;33718;50.910;-1.514;2022-12-07T04:58:38;6.47;;;5.57;;
47958;SDS011;33718;50.910;-1.514;2022-12-07T05:00:40;7.20;;;6.45;;
47958;SDS011;33718;50.910;-1.514;2022-12-07T05:02:41;6.80;;;5.60;;
47958;SDS011;33718;50.910;-1.514;2022-12-07T05:04:43;6.65;;;5.95;;
47958;SDS011;33718;50.910;-1.514;2022-12-07T05:06:44;6.90;;;5.97;;
47958;SDS011;33718;50.910;-1.514;2022-12-07T05:08:46;8.25;;;6.40;;
47958;SDS011;33718;50.910;-1.514;2022-12-07T05:10:48;7.38;;;6.60;;
47958;SDS011;33718;50.910;-1.514;2022-12-07T05:12:50;9.93;;;7.95;;
47958;SDS011;33718;50.910;-1.514;2022-12-07T05:14:51;10.30;;;7.28;;
47958;SDS011;33718;50.910;-1.514;2022-12-07T05:16:53;7.47;;;6.70;;
47958;SDS011;33718;50.910;-1.514;2022-12-07T05:18:55;7.25;;;6.25;;
47958;SDS011;33718;50.910;-1.514;2022-12-07T05:20:57;6.72;;;6.03;;
47958;SDS011;33718;50.910;-1.514;2022-12-07T05:22:58;6.45;;;5.70;;
47958;SDS011;33718;50.910;-1.514;2022-12-07T05:25:00;5.40;;;4.88;;
47958;SDS011;33718;50.910;-1.514;2022-12-07T05:27:01;4.95;;;4.45;;
47958;SDS011;33718;50.910;-1.514;2022-12-07T05:29:03;6.25;;;5.30;;
47958;SDS011;33718;50.910;-1.514;2022-12-07T05:31:05;5.60;;;4.75;;
47958;SDS011;33718;50.910;-1.514;2022-12-07T05:33:06;8.20;;;7.40;;
47958;SDS011;33718;50.910;-1.514;2022-12-07T05:35:08;6.95;;;6.25;;
47958;SDS011;33718;50.910;-1.514;2022-12-07T05:37:09;10.27;;;7.82;;
47958;SDS011;33718;50.910;-1.514;2022-12-07T05:39:11;7.30;;;6.55;;
47958;SDS011;33718;50.910;-1.514;2022-12-07T05:41:14;9.65;;;7.70;;
47958;SDS011;33718;50.910;-1.514;2022-12-07T05:43:35;6.07;;;5.50;;
47958;SDS011;33718;50.910;-1.514;2022-12-07T05:45:36;6.30;;;5.65;;
47958;SDS011;33718;50.910;-1.514;2022-12-07T05:47:38;7.03;;;5.47;;
47958;SDS011;33718;50.910;-1.514;2022-12-07T05:49:39;5.93;;;5.38;;
47958;SDS011;33718;50.910;-1.514;2022-12-07T05:51:41;5.10;;;4.60;;
47958;SDS011;33718;50.910;-1.514;2022-12-07T05:53:43;6.32;;;5.53;;
47958;SDS011;33718;50.910;-1.514;2022-12-07T05:55:45;6.32;;;5.65;;
47958;SDS011;33718;50.910;-1.514;2022-12-07T05:57:46;8.60;;;6.05;;
47958;SDS011;33718;50.910;-1.514;2022-12-07T06:00:07;5.53;;;5.03;;
47958;SDS011;33718;50.910;-1.514;2022-12-07T06:02:09;5.05;;;4.50;;
47958;SDS011;33718;50.910;-1.514;2022-12-07T06:04:11;5.78;;;5.28;;
47958;SDS011;33718;50.910;-1.514;2022-12-07T06:06:13;4.45;;;4.05;;
47958;SDS011;33718;50.910;-1.514;2022-12-07T06:08:14;4.30;;;3.83;;
47958;SDS011;33718;50.910;-1.514;2022-12-07T06:10:16;3.90;;;3.60;;
47958;SDS011;33718;50.910;-1.514;2022-12-07T06:12:18;4.65;;;4.25;;
47958;SDS011;33718;50.910;-1.514;2022-12-07T06:14:35;6.57;;;5.72;;
47958;SDS011;33718;50.910;-1.514;2022-12-07T06:16:36;5.10;;;4.60;;
47958;SDS011;33718;50.910;-1.514;2022-12-07T06:18:38;7.70;;;6.75;;
47958;SDS011;33718;50.910;-1.514;2022-12-07T06:20:39;5.78;;;5.20;;
47958;SDS011;33718;50.910;-1.514;2022-12-07T06:22:41;7.45;;;6.13;;
47958;SDS011;33718;50.910;-1.514;2022-12-07T06:24:43;5.68;;;5.07;;
47958;SDS011;33718;50.910;-1.514;2022-12-07T06:26:45;5.80;;;5.00;;
47958;SDS011;33718;50.910;-1.514;2022-12-07T06:28:46;8.10;;;6.70;;
47958;SDS011;33718;50.910;-1.514;2022-12-07T06:30:56;5.90;;;5.18;;
47958;SDS011;33718;50.910;-1.514;2022-12-07T06:32:57;7.50;;;5.50;;
47958;SDS011;33718;50.910;-1.514;2022-12-07T06:34:59;5.97;;;4.75;;
47958;SDS011;33718;50.910;-1.514;2022-12-07T06:37:01;6.53;;;5.60;;
47958;SDS011;33718;50.910;-1.514;2022-12-07T06:39:02;6.63;;;5.95;;
47958;SDS011;33718;50.910;-1.514;2022-12-07T06:41:04;5.63;;;5.10;;
47958;SDS011;33718;50.910;-1.514;2022-12-07T06:43:06;5.78;;;5.18;;
47958;SDS011;33718;50.910;-1.514;2022-12-07T06:45:07;5.03;;;4.53;;
47958;SDS011;33718;50.910;-1.514;2022-12-07T06:47:09;4.72;;;4.32;;
47958;SDS011;33718;50.910;-1.514;2022-12-07T06:49:30;5.18;;;4.57;;
47958;SDS011;33718;50.910;-1.514;2022-12-07T06:51:32;4.63;;;4.22;;
47958;SDS011;33718;50.910;-1.514;2022-12-07T06:53:34;5.28;;;4.07;;
47958;SDS011;33718;50.910;-1.514;2022-12-07T06:55:36;5.30;;;4.78;;
47958;SDS011;33718;50.910;-1.514;2022-12-07T06:57:37;5.97;;;5.18;;
47958;SDS011;33718;50.910;-1.514;2022-12-07T06:59:39;5.50;;;4.03;;
47958;SDS011;33718;50.910;-1.514;2022-12-07T07:01:40;4.85;;;4.40;;
47958;SDS011;33718;50.910;-1.514;2022-12-07T07:03:43;4.32;;;3.92;;
47958;SDS011;33718;50.910;-1.514;2022-12-07T07:05:44;8.50;;;6.50;;
47958;SDS011;33718;50.910;-1.514;2022-12-07T07:07:46;10.35;;;8.27;;
47958;SDS011;33718;50.910;-1.514;2022-12-07T07:10:09;11.07;;;8.80;;
47958;SDS011;33718;50.910;-1.514;2022-12-07T07:12:10;14.30;;;10.48;;
47958;SDS011;33718;50.910;-1.514;2022-12-07T07:14:12;9.98;;;7.93;;
47958;SDS011;33718;50.910;-1.514;2022-12-07T07:16:21;8.45;;;7.55;;
47958;SDS011;33718;50.910;-1.514;2022-12-07T07:18:25;8.00;;;6.40;;
47958;SDS011;33718;50.910;-1.514;2022-12-07T07:20:29;6.60;;;5.35;;
47958;SDS011;33718;50.910;-1.514;2022-12-07T07:22:33;6.18;;;5.57;;
47958;SDS011;33718;50.910;-1.514;2022-12-07T07:26:41;6.53;;;5.90;;
47958;SDS011;33718;50.910;-1.514;2022-12-07T07:28:45;5.40;;;4.75;;
47958;SDS011;33718;50.910;-1.514;2022-12-07T07:30:50;4.70;;;4.30;;
47958;SDS011;33718;50.910;-1.514;2022-12-07T07:33:00;5.18;;;4.32;;
47958;SDS011;33718;50.910;-1.514;2022-12-07T07:35:06;4.32;;;3.88;;
47958;SDS011;33718;50.910;-1.514;2022-12-07T07:37:11;4.70;;;4.30;;
47958;SDS011;33718;50.910;-1.514;2022-12-07T07:39:23;4.13;;;3.72;;
47958;SDS011;33718;50.910;-1.514;2022-12-07T07:41:27;5.55;;;4.13;;
47958;SDS011;33718;50.910;-1.514;2022-12-07T07:43:32;7.88;;;4.88;;
47958;SDS011;33718;50.910;-1.514;2022-12-07T07:45:37;4.13;;;3.72;;
47958;SDS011;33718;50.910;-1.514;2022-12-07T07:49:46;7.63;;;5.55;;
47958;SDS011;33718;50.910;-1.514;2022-12-07T07:51:50;6.32;;;4.40;;
47958;SDS011;33718;50.910;-1.514;2022-12-07T07:53:58;5.28;;;4.15;;
47958;SDS011;33718;50.910;-1.514;2022-12-07T07:55:59;5.45;;;4.00;;
47958;SDS011;33718;50.910;-1.514;2022-12-07T07:58:01;4.32;;;3.92;;
47958;SDS011;33718;50.910;-1.514;2022-12-07T08:00:07;3.17;;;2.92;;
47958;SDS011;33718;50.910;-1.514;2022-12-07T08:02:19;6.10;;;4.68;;
47958;SDS011;33718;50.910;-1.514;2022-12-07T08:04:21;5.00;;;4.00;;
47958;SDS011;33718;50.910;-1.514;2022-12-07T08:06:22;4.68;;;4.00;;
47958;SDS011;33718;50.910;-1.514;2022-12-07T08:08:32;6.32;;;5.63;;
47958;SDS011;33718;50.910;-1.514;2022-12-07T08:10:33;7.82;;;6.60;;
47958;SDS011;33718;50.910;-1.514;2022-12-07T08:12:40;9.57;;;6.35;;
47958;SDS011;33718;50.910;-1.514;2022-12-07T08:17:03;7.82;;;7.03;;
47958;SDS011;33718;50.910;-1.514;2022-12-07T08:19:05;8.07;;;6.72;;
47958;SDS011;33718;50.910;-1.514;2022-12-07T08:21:07;5.93;;;5.15;;
47958;SDS011;33718;50.910;-1.514;2022-12-07T08:23:11;7.10;;;6.40;;
47958;SDS011;33718;50.910;-1.514;2022-12-07T08:25:12;6.68;;;5.55;;
47958;SDS011;33718;50.910;-1.514;2022-12-07T08:27:14;7.32;;;6.32;;
47958;SDS011;33718;50.910;-1.514;2022-12-07T08:29:16;6.13;;;5.57;;
47958;SDS011;33718;50.910;-1.514;2022-12-07T08:31:17;5.05;;;4.55;;
47958;SDS011;33718;50.910;-1.514;2022-12-07T08:33:20;4.60;;;4.20;;
47958;SDS011;33718;50.910;-1.514;2022-12-07T08:35:24;9.13;;;6.60;;
47958;SDS011;33718;50.910;-1.514;2022-12-07T08:37:26;5.95;;;5.35;;
47958;SDS011;33718;50.910;-1.514;2022-12-07T08:39:27;6.25;;;5.65;;
47958;SDS011;33718;50.910;-1.514;2022-12-07T08:41:32;6.47;;;5.30;;
47958;SDS011;33718;50.910;-1.514;2022-12-07T08:43:34;7.68;;;6.63;;
47958;SDS011;33718;50.910;-1.514;2022-12-07T08:45:35;6.63;;;5.97;;
47958;SDS011;33718;50.910;-1.514;2022-12-07T08:47:39;8.30;;;6.47;;
47958;SDS011;33718;50.910;-1.514;2022-12-07T08:51:43;7.30;;;6.18;;
47958;SDS011;33718;50.910;-1.514;2022-12-07T08:53:44;6.20;;;5.60;;
47958;SDS011;33718;50.910;-1.514;2022-12-07T08:55:46;7.00;;;6.30;;
47958;SDS011;33718;50.910;-1.514;2022-12-07T08:57:49;5.68;;;5.18;;
47958;SDS011;33718;50.910;-1.514;2022-12-07T08:59:51;5.28;;;4.78;;
47958;SDS011;33718;50.910;-1.514;2022-12-07T09:01:53;6.82;;;5.93;;
47958;SDS011;33718;50.910;-1.514;2022-12-07T09:03:55;6.60;;;5.90;;
47958;SDS011;33718;50.910;-1.514;2022-12-07T09:06:21;9.55;;;7.47;;
47958;SDS011;33718;50.910;-1.514;2022-12-07T09:08:23;8.25;;;6.55;;
47958;SDS011;33718;50.910;-1.514;2022-12-07T09:10:28;7.38;;;6.30;;
47958;SDS011;33718;50.910;-1.514;2022-12-07T09:12:30;8.02;;;5.97;;
47958;SDS011;33718;50.910;-1.514;2022-12-07T09:14:32;8.43;;;6.05;;
47958;SDS011;33718;50.910;-1.514;2022-12-07T09:16:34;6.53;;;5.93;;
47958;SDS011;33718;50.910;-1.514;2022-12-07T09:18:36;8.90;;;6.90;;
47958;SDS011;33718;50.910;-1.514;2022-12-07T09:20:39;11.20;;;7.22;;
47958;SDS011;33718;50.910;-1.514;2022-12-07T09:22:41;6.43;;;5.72;;
47958;SDS011;33718;50.910;-1.514;2022-12-07T09:24:42;9.65;;;6.38;;
47958;SDS011;33718;50.910;-1.514;2022-12-07T09:26:46;7.70;;;6.43;;
47958;SDS011;33718;50.910;-1.514;2022-12-07T09:28:47;5.68;;;5.10;;
47958;SDS011;33718;50.910;-1.514;2022-12-07T09:30:49;5.05;;;4.55;;
47958;SDS011;33718;50.910;-1.514;2022-12-07T09:33:10;7.30;;;6.60;;
47958;SDS011;33718;50.910;-1.514;2022-12-07T09:35:12;9.00;;;8.02;;
47958;SDS011;33718;50.910;-1.514;2022-12-07T09:37:13;9.77;;;8.27;;
47958;SDS011;33718;50.910;-1.514;2022-12-07T09:39:15;7.82;;;6.43;;
47958;SDS011;33718;50.910;-1.514;2022-12-07T09:41:17;8.75;;;7.85;;
47958;SDS011;33718;50.910;-1.514;2022-12-07T09:43:22;7.32;;;6.63;;
47958;SDS011;33718;50.910;-1.514;2022-12-07T09:45:31;6.22;;;5.07;;
47958;SDS011;33718;50.910;-1.514;2022-12-07T09:47:33;5.63;;;5.10;;
47958;SDS011;33718;50.910;-1.514;2022-12-07T09:49:37;4.82;;;4.43;;
47958;SDS011;33718;50.910;-1.514;2022-12-07T09:51:38;4.22;;;3.85;;
47958;SDS011;33718;50.910;-1.514;2022-12-07T09:53:40;6.78;;;5.57;;
47958;SDS011;33718;50.910;-1.514;2022-12-07T09:55:42;6.03;;;5.07;;
47958;SDS011;33718;50.910;-1.514;2022-12-07T09:57:44;5.53;;;4.43;;
47958;SDS011;33718;50.910;-1.514;2022-12-07T09:59:46;4.55;;;3.88;;
47958;SDS011;33718;50.910;-1.514;2022-12-07T10:01:49;5.10;;;4.60;;
47958;SDS011;33718;50.910;-1.514;2022-12-07T10:03:54;7.38;;;5.75;;
47958;SDS011;33718;50.910;-1.514;2022-12-07T10:05:57;6.90;;;5.45;;
47958;SDS011;33718;50.910;-1.514;2022-12-07T10:07:58;6.03;;;5.43;;
47958;SDS011;33718;50.910;-1.514;2022-12-07T10:10:02;5.85;;;5.25;;
47958;SDS011;33718;50.910;-1.514;2022-12-07T10:12:08;14.30;;;10.95;;
47958;SDS011;33718;50.910;-1.514;2022-12-07T10:14:11;10.18;;;8.18;;
47958;SDS011;33718;50.910;-1.514;2022-12-07T10:16:28;9.95;;;7.97;;
47958;SDS011;33718;50.910;-1.514;2022-12-07T10:18:39;10.85;;;7.78;;
47958;SDS011;33718;50.910;-1.514;2022-12-07T10:20:45;9.15;;;6.13;;
47958;SDS011;33718;50.910;-1.514;2022-12-07T10:25:07;8.98;;;6.03;;
47958;SDS011;33718;50.910;-1.514;2022-12-07T10:27:19;8.75;;;6.78;;
47958;SDS011;33718;50.910;-1.514;2022-12-07T10:29:38;9.10;;;6.38;;
47958;SDS011;33718;50.910;-1.514;2022-12-07T10:31:40;13.60;;;10.65;;
47958;SDS011;33718;50.910;-1.514;2022-12-07T10:35:52;7.65;;;6.88;;
47958;SDS011;33718;50.910;-1.514;2022-12-07T10:37:55;9.30;;;8.00;;
47958;SDS011;33718;50.910;-1.514;2022-12-07T10:39:59;8.82;;;7.22;;
47958;SDS011;33718;50.910;-1.514;2022-12-07T10:42:03;7.47;;;6.50;;
47958;SDS011;33718;50.910;-1.514;2022-12-07T10:44:07;11.70;;;8.13;;
47958;SDS011;33718;50.910;-1.514;2022-12-07T10:59:12;8.95;;;7.68;;
47958;SDS011;33718;50.910;-1.514;2022-12-07T11:10:21;8.38;;;5.88;;
47958;SDS011;33718;50.910;-1.514;2022-12-07T11:15:20;7.80;;;6.10;;
47958;SDS011;33718;50.910;-1.514;2022-12-07T11:21:57;9.32;;;6.00;;
47958;SDS011;33718;50.910;-1.514;2022-12-07T11:30:34;4.50;;;4.05;;
47958;SDS011;33718;50.910;-1.514;2022-12-07T11:37:10;6.80;;;5.50;;
47958;SDS011;33718;50.910;-1.514;2022-12-07T11:41:17;5.80;;;4.30;;
47958;SDS011;33718;50.910;-1.514;2022-12-07T11:43:26;5.38;;;4.13;;
47958;SDS011;33718;50.910;-1.514;2022-12-07T11:45:32;4.75;;;3.63;;
47958;SDS011;33718;50.910;-1.514;2022-12-07T11:47:45;3.30;;;3.00;;
47958;SDS011;33718;50.910;-1.514;2022-12-07T11:49:56;5.43;;;3.05;;
47958;SDS011;33718;50.910;-1.514;2022-12-07T11:51:59;5.88;;;3.50;;
47958;SDS011;33718;50.910;-1.514;2022-12-07T11:56:21;5.05;;;3.25;;
47958;SDS011;33718;50.910;-1.514;2022-12-07T12:00:34;4.93;;;2.90;;
47958;SDS011;33718;50.910;-1.514;2022-12-07T12:02:43;3.58;;;3.03;;
47958;SDS011;33718;50.910;-1.514;2022-12-07T12:06:47;3.33;;;2.47;;
47958;SDS011;33718;50.910;-1.514;2022-12-07T12:08:55;2.83;;;2.42;;
47958;SDS011;33718;50.910;-1.514;2022-12-07T12:13:27;3.80;;;3.15;;
47958;SDS011;33718;50.910;-1.514;2022-12-07T12:16:08;3.53;;;2.58;;
47958;SDS011;33718;50.910;-1.514;2022-12-07T12:22:39;2.67;;;2.00;;
47958;SDS011;33718;50.910;-1.514;2022-12-07T12:24:43;5.03;;;3.13;;
47958;SDS011;33718;50.910;-1.514;2022-12-07T12:26:50;4.07;;;2.77;;
47958;SDS011;33718;50.910;-1.514;2022-12-07T12:39:34;2.13;;;1.60;;
47958;SDS011;33718;50.910;-1.514;2022-12-07T12:43:48;5.18;;;2.65;;
47958;SDS011;33718;50.910;-1.514;2022-12-07T12:45:51;2.17;;;2.00;;
47958;SDS011;33718;50.910;-1.514;2022-12-07T12:50:44;3.63;;;2.25;;
47958;SDS011;33718;50.910;-1.514;2022-12-07T12:53:36;2.95;;;1.80;;
47958;SDS011;33718;50.910;-1.514;2022-12-07T12:58:29;2.47;;;1.83;;
47958;SDS011;33718;50.910;-1.514;2022-12-07T13:00:31;2.70;;;1.60;;
47958;SDS011;33718;50.910;-1.514;2022-12-07T13:03:25;3.72;;;2.60;;
47958;SDS011;33718;50.910;-1.514;2022-12-07T13:07:13;2.00;;;1.63;;
47958;SDS011;33718;50.910;-1.514;2022-12-07T13:09:35;1.92;;;1.70;;
47958;SDS011;33718;50.910;-1.514;2022-12-07T13:11:40;2.58;;;1.70;;
47958;SDS011;33718;50.910;-1.514;2022-12-07T13:13:43;3.08;;;2.13;;
47958;SDS011;33718;50.910;-1.514;2022-12-07T13:17:56;2.40;;;2.15;;
47958;SDS011;33718;50.910;-1.514;2022-12-07T13:22:01;3.15;;;1.67;;
47958;SDS011;33718;50.910;-1.514;2022-12-07T13:24:06;2.70;;;1.60;;
47958;SDS011;33718;50.910;-1.514;2022-12-07T13:28:18;3.88;;;2.13;;
47958;SDS011;33718;50.910;-1.514;2022-12-07T13:30:22;5.05;;;1.85;;
47958;SDS011;33718;50.910;-1.514;2022-12-07T13:32:24;1.45;;;1.35;;
47958;SDS011;33718;50.910;-1.514;2022-12-07T13:36:38;2.00;;;1.58;;
47958;SDS011;33718;50.910;-1.514;2022-12-07T13:38:40;3.53;;;1.50;;
47958;SDS011;33718;50.910;-1.514;2022-12-07T13:43:21;1.52;;;1.08;;
47958;SDS011;33718;50.910;-1.514;2022-12-07T13:45:24;2.22;;;1.70;;
47958;SDS011;33718;50.910;-1.514;2022-12-07T13:47:53;4.25;;;2.00;;
47958;SDS011;33718;50.910;-1.514;2022-12-07T13:49:58;4.18;;;1.42;;
47958;SDS011;33718;50.910;-1.514;2022-12-07T13:52:21;2.28;;;1.75;;
47958;SDS011;33718;50.910;-1.514;2022-12-07T13:54:24;3.85;;;1.50;;
47958;SDS011;33718;50.910;-1.514;2022-12-07T13:56:28;3.10;;;1.35;;
47958;SDS011;33718;50.910;-1.514;2022-12-07T13:58:34;4.07;;;1.50;;
47958;SDS011;33718;50.910;-1.514;2022-12-07T14:00:39;2.08;;;1.25;;
47958;SDS011;33718;50.910;-1.514;2022-12-07T14:03:00;1.50;;;0.93;;
47958;SDS011;33718;50.910;-1.514;2022-12-07T14:05:08;1.60;;;1.00;;
47958;SDS011;33718;50.910;-1.514;2022-12-07T14:07:23;0.98;;;0.80;;
47958;SDS011;33718;50.910;-1.514;2022-12-07T14:09:28;1.40;;;0.80;;
47958;SDS011;33718;50.910;-1.514;2022-12-07T14:11:33;1.85;;;1.10;;
47958;SDS011;33718;50.910;-1.514;2022-12-07T14:15:43;1.95;;;0.90;;
47958;SDS011;33718;50.910;-1.514;2022-12-07T14:17:53;2.15;;;0.82;;
47958;SDS011;33718;50.910;-1.514;2022-12-07T14:20:00;2.78;;;0.90;;
47958;SDS011;33718;50.910;-1.514;2022-12-07T14:22:07;1.30;;;1.10;;
47958;SDS011;33718;50.910;-1.514;2022-12-07T14:24:16;1.88;;;0.70;;